createdAt,value
2022-10-30T00:01:56.999Z,67.82
2022-10-30T00:05:01.657Z,68.35
2022-10-30T00:08:08.256Z,68.78
2022-10-30T00:11:15.506Z,69.52
2022-10-30T00:14:21.597Z,70.15
2022-10-30T00:17:27.783Z,69.94
2022-10-30T00:20:33.846Z,68.76
2022-10-30T00:23:41.059Z,68.14
2022-10-30T00:26:47.115Z,67.35
2022-10-30T00:29:53.237Z,66.96
2022-10-30T00:32:58.088Z,67.13
2022-10-30T00:36:04.425Z,67.37
2022-10-30T00:39:09.011Z,67.69
2022-10-30T00:42:18.051Z,67.79
2022-10-30T00:45:24.248Z,67.56
2022-10-30T00:48:29.583Z,67.36
2022-10-30T00:51:36.283Z,67.36
2022-10-30T00:54:42.497Z,67.09
2022-10-30T00:57:47.550Z,66.67
2022-10-30T01:00:56.360Z,66.71
2022-10-30T01:04:04.979Z,66.48
2022-10-30T01:07:16.779Z,66.30
2022-10-30T01:10:23.656Z,66.11
2022-10-30T01:13:30.873Z,66.10
2022-10-30T01:17:06.407Z,66.92
2022-10-30T01:20:19.421Z,67.32
2022-10-30T01:23:38.983Z,67.62
2022-10-30T01:26:54.082Z,67.35
2022-10-30T01:30:12.432Z,67.37
2022-10-30T01:33:31.698Z,66.72
2022-10-30T01:36:44.538Z,66.16
2022-10-30T01:39:50.725Z,66.25
2022-10-30T01:42:56.130Z,66.47
2022-10-30T01:46:25.030Z,66.94
2022-10-30T01:49:52.277Z,67.21
2022-10-30T01:53:03.988Z,67.32
2022-10-30T01:56:22.017Z,67.63
2022-10-30T01:59:34.530Z,67.93
2022-10-30T02:02:40.993Z,67.99
2022-10-30T02:05:49.972Z,67.76
2022-10-30T02:08:58.193Z,68.63
2022-10-30T02:12:05.739Z,69.03
2022-10-30T02:15:13.764Z,69.56
2022-10-30T02:18:19.932Z,69.90
2022-10-30T02:21:24.440Z,69.93
2022-10-30T02:24:31.423Z,70.12
2022-10-30T02:27:37.567Z,70.23
2022-10-30T02:30:44.240Z,70.09
2022-10-30T02:33:50.481Z,69.74
2022-10-30T02:36:54.945Z,69.04
2022-10-30T02:40:01.285Z,68.85
2022-10-30T02:43:07.482Z,68.86
2022-10-30T02:46:13.622Z,69.10
2022-10-30T02:49:19.769Z,68.97
2022-10-30T02:52:25.788Z,68.64
2022-10-30T02:55:31.932Z,68.26
2022-10-30T02:58:38.474Z,68.39
2022-10-30T03:01:44.988Z,69.04
2022-10-30T03:04:51.179Z,68.86
2022-10-30T03:07:57.490Z,68.54
2022-10-30T03:11:05.363Z,68.19
2022-10-30T03:14:11.700Z,67.28
2022-10-30T03:17:17.811Z,66.96
2022-10-30T03:20:23.949Z,67.05
2022-10-30T03:23:30.241Z,66.92
2022-10-30T03:26:36.230Z,66.76
2022-10-30T03:29:42.475Z,67.33
2022-10-30T03:32:47.045Z,68.10
2022-10-30T03:35:53.582Z,68.76
2022-10-30T03:38:59.710Z,69.03
2022-10-30T03:42:05.981Z,68.79
2022-10-30T03:45:11.492Z,68.80
2022-10-30T03:48:18.506Z,67.88
2022-10-30T03:51:24.523Z,66.79
2022-10-30T03:54:31.307Z,66.43
2022-10-30T03:57:39.457Z,66.33
2022-10-30T04:00:45.629Z,66.71
2022-10-30T04:03:50.195Z,66.69
2022-10-30T04:06:56.257Z,66.54
2022-10-30T04:10:02.440Z,66.54
2022-10-30T04:13:07.562Z,66.66
2022-10-30T04:16:13.902Z,66.86
2022-10-30T04:19:18.368Z,66.68
2022-10-30T04:22:24.924Z,66.62
2022-10-30T04:25:31.822Z,66.49
2022-10-30T04:28:37.930Z,66.51
2022-10-30T04:31:44.089Z,66.72
2022-10-30T04:34:53.472Z,66.72
2022-10-30T04:38:00.864Z,66.76
2022-10-30T04:41:07.107Z,67.14
2022-10-30T04:44:11.577Z,67.81
2022-10-30T04:47:17.894Z,68.46
2022-10-30T04:50:24.050Z,68.65
2022-10-30T04:53:30.218Z,68.57
2022-10-30T04:56:36.416Z,67.90
2022-10-30T04:59:40.961Z,67.38
2022-10-30T05:02:47.103Z,67.14
2022-10-30T05:06:01.160Z,67.00
2022-10-30T05:09:07.365Z,66.90
2022-10-30T05:12:13.893Z,66.85
2022-10-30T05:15:20.259Z,67.16
2022-10-30T05:18:26.467Z,67.37
2022-10-30T05:21:32.537Z,67.47
2022-10-30T05:24:38.718Z,67.36
2022-10-30T05:27:43.186Z,67.34
2022-10-30T05:30:49.452Z,67.33
2022-10-30T05:33:54.067Z,66.98
2022-10-30T05:37:01.518Z,67.05
2022-10-30T05:40:09.239Z,66.87
2022-10-30T05:43:15.482Z,66.89
2022-10-30T05:46:21.623Z,66.87
2022-10-30T05:49:27.754Z,67.22
2022-10-30T05:52:33.878Z,67.49
2022-10-30T05:55:39.980Z,67.59
2022-10-30T05:58:46.099Z,67.57
2022-10-30T06:01:52.179Z,67.92
2022-10-30T06:04:58.295Z,68.20
2022-10-30T06:08:05.250Z,67.95
2022-10-30T06:11:11.516Z,67.90
2022-10-30T06:14:16.144Z,68.07
2022-10-30T06:17:22.308Z,68.25
2022-10-30T06:20:30.117Z,68.30
2022-10-30T06:23:36.239Z,68.65
2022-10-30T06:26:42.852Z,69.06
2022-10-30T06:29:49.222Z,69.09
2022-10-30T06:32:57.619Z,69.40
2022-10-30T06:36:03.913Z,69.51
2022-10-30T06:39:10.138Z,69.28
2022-10-30T06:42:14.591Z,69.15
2022-10-30T06:45:22.803Z,69.08
2022-10-30T06:48:28.944Z,68.75
2022-10-30T06:51:35.945Z,68.85
2022-10-30T06:54:42.315Z,68.86
2022-10-30T06:57:54.622Z,69.00
2022-10-30T07:01:02.863Z,68.81
2022-10-30T07:04:09.103Z,68.92
2022-10-30T07:07:15.293Z,68.98
2022-10-30T07:10:21.890Z,68.94
2022-10-30T07:13:28.145Z,68.75
2022-10-30T07:16:32.633Z,68.90
2022-10-30T07:19:38.954Z,69.28
2022-10-30T07:22:45.049Z,69.38
2022-10-30T07:25:51.075Z,69.60
2022-10-30T07:28:57.239Z,69.59
2022-10-30T07:32:03.764Z,70.15
2022-10-30T07:35:12.539Z,70.68
2022-10-30T07:38:18.907Z,70.92
2022-10-30T07:41:23.514Z,71.43
2022-10-30T07:44:29.640Z,71.76
2022-10-30T07:47:40.106Z,72.06
2022-10-30T07:50:46.242Z,72.67
2022-10-30T07:53:52.273Z,72.86
2022-10-30T07:56:59.086Z,73.08
2022-10-30T08:00:05.582Z,72.87
2022-10-30T08:03:12.974Z,72.50
2022-10-30T08:06:22.918Z,72.20
2022-10-30T08:09:32.446Z,72.12
2022-10-30T08:12:40.684Z,72.06
2022-10-30T08:15:46.812Z,72.22
2022-10-30T08:18:53.337Z,72.09
2022-10-30T08:22:00.261Z,72.21
2022-10-30T08:25:07.290Z,72.03
2022-10-30T08:28:14.578Z,72.32
2022-10-30T08:31:20.725Z,72.44
2022-10-30T08:34:26.773Z,72.42
2022-10-30T08:37:32.837Z,72.50
2022-10-30T08:40:39.094Z,72.07
2022-10-30T08:43:43.575Z,72.01
2022-10-30T08:46:49.674Z,72.22
2022-10-30T08:49:55.639Z,71.96
2022-10-30T08:53:05.689Z,71.94
2022-10-30T08:56:11.890Z,71.97
2022-10-30T08:59:17.271Z,71.83
2022-10-30T09:02:26.717Z,71.99
2022-10-30T09:05:33.045Z,71.28
2022-10-30T09:08:39.237Z,70.42
2022-10-30T09:11:43.740Z,70.38
2022-10-30T09:14:49.864Z,70.47
2022-10-30T09:17:58.823Z,69.83
2022-10-30T09:21:05.612Z,69.89
2022-10-30T09:24:12.043Z,69.49
2022-10-30T09:27:18.059Z,69.19
2022-10-30T09:30:24.405Z,68.87
2022-10-30T09:33:30.536Z,68.52
2022-10-30T09:36:35.525Z,68.18
2022-10-30T09:39:41.715Z,68.11
2022-10-30T09:42:47.329Z,67.90
2022-10-30T09:46:21.194Z,67.88
2022-10-30T09:49:45.135Z,67.66
2022-10-30T09:53:03.577Z,67.31
2022-10-30T09:56:19.438Z,66.93
2022-10-30T09:59:31.592Z,66.68
2022-10-30T10:02:39.863Z,66.53
2022-10-30T10:05:49.924Z,66.30
2022-10-30T10:08:59.774Z,65.92
2022-10-30T10:12:09.334Z,65.99
2022-10-30T10:15:30.945Z,65.93
2022-10-30T10:18:44.585Z,65.25
2022-10-30T10:21:56.711Z,65.00
2022-10-30T10:25:04.090Z,64.62
2022-10-30T10:28:23.643Z,64.35
2022-10-30T10:31:41.700Z,64.32
2022-10-30T10:34:58.925Z,63.90
2022-10-30T10:38:11.995Z,63.61
2022-10-30T10:41:27.431Z,62.98
2022-10-30T10:44:48.917Z,62.67
2022-10-30T10:51:21.762Z,61.84
2022-10-30T10:54:32.045Z,61.71
2022-10-30T10:57:41.818Z,60.91
2022-10-30T11:00:49.091Z,60.76
2022-10-30T11:04:01.566Z,59.73
2022-10-30T11:07:22.724Z,58.42
2022-10-30T11:10:28.709Z,60.49
2022-10-30T11:13:35.935Z,60.63
2022-10-30T11:16:56.130Z,59.74
2022-10-30T11:20:13.486Z,59.14
2022-10-30T11:23:38.843Z,60.79
2022-10-30T11:26:45.497Z,59.96
2022-10-30T11:29:54.830Z,59.97
2022-10-30T11:33:22.052Z,60.45
2022-10-30T11:36:28.539Z,60.05
2022-10-30T11:39:35.974Z,61.65
2022-10-30T11:42:44.025Z,61.28
2022-10-30T11:45:51.615Z,60.53
2022-10-30T11:48:57.668Z,60.92
2022-10-30T11:52:04.762Z,59.08
2022-10-30T11:55:17.821Z,59.13
2022-10-30T11:58:30.935Z,61.46
2022-10-30T12:01:39.479Z,60.81
2022-10-30T12:04:45.615Z,60.13
2022-10-30T12:07:52.169Z,58.85
2022-10-30T12:11:01.653Z,60.10
2022-10-30T12:14:08.387Z,61.70
2022-10-30T12:17:17.956Z,62.25
2022-10-30T12:20:24.533Z,61.20
2022-10-30T12:23:32.513Z,59.85
2022-10-30T12:26:39.892Z,58.70
2022-10-30T12:30:07.893Z,57.19
2022-10-30T12:33:22.358Z,57.82
2022-10-30T12:36:33.683Z,58.79
2022-10-30T12:39:51.269Z,59.09
2022-10-30T12:43:03.051Z,60.94
2022-10-30T12:46:23.466Z,60.64
2022-10-30T12:49:36.152Z,58.01
2022-10-30T12:52:47.399Z,57.76
2022-10-30T12:56:01.200Z,58.15
2022-10-30T12:59:23.231Z,58.53
2022-10-30T13:02:42.130Z,59.11
2022-10-30T13:05:53.069Z,60.84
2022-10-30T13:09:09.481Z,60.78
2022-10-30T13:12:19.732Z,59.50
2022-10-30T13:15:31.039Z,57.29
2022-10-30T13:18:37.801Z,57.87
2022-10-30T13:21:50.428Z,58.88
2022-10-30T13:25:04.218Z,58.60
2022-10-30T13:28:21.577Z,59.28
2022-10-30T13:31:33.681Z,59.70
2022-10-30T13:34:51.931Z,59.97
2022-10-30T13:38:05.575Z,61.51
2022-10-30T13:41:24.430Z,61.32
2022-10-30T13:44:41.653Z,60.04
2022-10-30T13:47:57.505Z,57.72
2022-10-30T13:51:23.388Z,55.86
2022-10-30T13:54:34.075Z,57.45
2022-10-30T13:57:45.149Z,58.09
2022-10-30T14:01:02.031Z,58.43
2022-10-30T14:04:15.473Z,58.35
2022-10-30T14:07:31.186Z,58.72
2022-10-30T14:10:47.590Z,58.76
2022-10-30T14:13:57.712Z,59.19
2022-10-30T14:17:17.947Z,59.15
2022-10-30T14:20:29.822Z,59.43
2022-10-30T14:23:38.914Z,60.23
2022-10-30T14:26:52.762Z,59.24
2022-10-30T14:30:00.601Z,59.36
2022-10-30T14:33:06.859Z,59.63
2022-10-30T14:36:25.101Z,59.87
2022-10-30T14:39:39.589Z,60.26
2022-10-30T14:42:54.741Z,60.44
2022-10-30T14:46:03.222Z,62.98
2022-10-30T14:49:29.814Z,63.46
2022-10-30T14:52:47.503Z,61.74
2022-10-30T14:56:03.150Z,60.64
2022-10-30T14:59:22.344Z,60.25
2022-10-30T15:02:38.158Z,59.98
2022-10-30T15:05:51.493Z,59.80
2022-10-30T15:09:10.791Z,58.84
2022-10-30T15:12:43.367Z,59.48
2022-10-30T15:16:01.867Z,61.29
2022-10-30T15:19:10.237Z,63.61
2022-10-30T15:22:21.821Z,63.95
2022-10-30T15:25:33.333Z,63.43
2022-10-30T15:28:40.272Z,62.93
2022-10-30T15:31:46.388Z,62.56
2022-10-30T15:35:03.596Z,61.77
2022-10-30T15:38:11.495Z,61.57
2022-10-30T15:41:17.763Z,61.26
2022-10-30T15:44:27.324Z,60.37
2022-10-30T15:47:33.850Z,60.36
2022-10-30T15:50:46.591Z,60.81
2022-10-30T15:53:56.238Z,61.36
2022-10-30T15:57:49.314Z,61.29
2022-10-30T16:00:31.342Z,61.42
2022-10-30T16:03:37.452Z,61.50
2022-10-30T16:06:49.673Z,61.35
2022-10-30T16:10:01.344Z,61.43
2022-10-30T16:13:07.827Z,61.11
2022-10-30T16:16:18.647Z,60.95
2022-10-30T16:19:29.231Z,60.91
2022-10-30T16:22:40.558Z,61.09
2022-10-30T16:25:47.848Z,61.21
2022-10-30T16:28:53.977Z,61.27
2022-10-30T16:32:01.283Z,61.45
2022-10-30T16:35:09.282Z,61.73
2022-10-30T16:38:16.396Z,61.72
2022-10-30T16:41:26.720Z,61.62
2022-10-30T16:44:34.886Z,61.70
2022-10-30T16:47:44.936Z,61.51
2022-10-30T16:50:52.140Z,61.49
2022-10-30T16:53:58.871Z,61.63
2022-10-30T16:57:10.937Z,61.51
2022-10-30T17:00:27.003Z,61.47
2022-10-30T17:03:38.378Z,61.62
2022-10-30T17:06:46.082Z,61.36
2022-10-30T17:09:54.142Z,61.55
2022-10-30T17:13:33.902Z,61.72
2022-10-30T17:16:40.672Z,62.00
2022-10-30T17:19:56.345Z,61.86
2022-10-30T17:23:15.880Z,61.94
2022-10-30T17:26:22.264Z,61.65
2022-10-30T17:29:49.784Z,61.70
2022-10-30T17:32:58.096Z,61.90
2022-10-30T17:36:06.988Z,62.08
2022-10-30T17:39:13.116Z,61.76
2022-10-30T17:42:17.648Z,61.90
2022-10-30T17:45:23.782Z,62.33
2022-10-30T17:48:28.963Z,62.48
2022-10-30T17:51:35.109Z,62.61
2022-10-30T17:54:39.765Z,62.32
2022-10-30T17:57:46.067Z,62.24
2022-10-30T18:00:52.228Z,62.17
2022-10-30T18:03:58.690Z,61.92
2022-10-30T18:07:04.895Z,62.21
2022-10-30T18:10:12.251Z,62.56
2022-10-30T18:13:19.650Z,62.87
2022-10-30T18:16:26.369Z,62.97
2022-10-30T18:19:32.593Z,62.95
2022-10-30T18:22:38.676Z,62.95
2022-10-30T18:25:43.129Z,62.86
2022-10-30T18:28:49.611Z,62.80
2022-10-30T18:31:55.703Z,62.46
2022-10-30T18:35:00.279Z,63.31
2022-10-30T18:38:08.317Z,64.34
2022-10-30T18:41:18.140Z,64.55
2022-10-30T18:44:24.198Z,63.95
2022-10-30T18:47:30.346Z,64.72
2022-10-30T18:50:35.030Z,64.69
2022-10-30T18:53:41.139Z,65.32
2022-10-30T18:56:45.814Z,66.01
2022-10-30T18:59:51.913Z,65.89
2022-10-30T19:02:56.730Z,65.62
2022-10-30T19:06:03.018Z,65.58
2022-10-30T19:09:09.224Z,65.95
2022-10-30T19:12:15.444Z,65.30
2022-10-30T19:15:26.159Z,65.12
2022-10-30T19:18:32.955Z,64.27
2022-10-30T19:21:39.103Z,63.56
2022-10-30T19:24:44.047Z,63.45
2022-10-30T19:27:50.429Z,63.60
2022-10-30T19:30:56.623Z,63.28
2022-10-30T19:34:01.128Z,63.06
2022-10-30T19:37:07.315Z,63.34
2022-10-30T19:40:26.823Z,63.52
2022-10-30T19:43:32.994Z,63.97
2022-10-30T19:46:37.840Z,65.05
2022-10-30T19:49:44.064Z,65.86
2022-10-30T19:52:48.611Z,64.42
2022-10-30T19:55:54.918Z,63.77
2022-10-30T19:59:01.161Z,63.15
2022-10-30T20:02:07.601Z,62.86
2022-10-30T20:05:16.097Z,62.75
2022-10-30T20:08:24.243Z,62.74
2022-10-30T20:11:32.013Z,62.81
2022-10-30T20:14:38.113Z,62.80
2022-10-30T20:17:42.735Z,63.07
2022-10-30T20:20:53.859Z,63.49
2022-10-30T20:24:00.055Z,63.66
2022-10-30T20:27:04.621Z,63.60
2022-10-30T20:30:15.662Z,64.03
2022-10-30T20:33:23.397Z,64.20
2022-10-30T20:36:29.602Z,64.24
2022-10-30T20:39:34.104Z,64.10
2022-10-30T20:42:40.455Z,64.30
2022-10-30T20:45:46.765Z,63.92
2022-10-30T20:48:53.057Z,63.41
2022-10-30T20:51:59.094Z,63.37
2022-10-30T20:55:05.711Z,63.08
2022-10-30T20:58:12.054Z,63.04
2022-10-30T21:01:18.328Z,63.13
2022-10-30T21:04:24.565Z,63.00
2022-10-30T21:07:29.068Z,63.04
2022-10-30T21:10:37.586Z,63.13
2022-10-30T21:13:43.703Z,63.18
2022-10-30T21:16:48.247Z,63.20
2022-10-30T21:19:54.389Z,63.47
2022-10-30T21:22:58.854Z,63.55
2022-10-30T21:26:06.545Z,63.56
2022-10-30T21:29:12.627Z,63.27
2022-10-30T21:32:19.091Z,63.03
2022-10-30T21:35:25.438Z,63.09
2022-10-30T21:38:32.946Z,63.22
2022-10-30T21:41:39.315Z,63.28
2022-10-30T21:44:45.406Z,63.35
2022-10-30T21:47:54.522Z,63.40
2022-10-30T21:51:08.506Z,63.33
2022-10-30T21:54:15.795Z,63.41
2022-10-30T21:57:21.917Z,63.81
2022-10-30T22:00:28.039Z,63.72
2022-10-30T22:03:35.049Z,63.30
2022-10-30T22:06:43.500Z,63.46
2022-10-30T22:09:49.567Z,64.28
2022-10-30T22:12:55.653Z,64.41
2022-10-30T22:16:02.149Z,64.63
2022-10-30T22:19:09.708Z,64.68
2022-10-30T22:22:15.821Z,65.16
2022-10-30T22:25:22.200Z,65.13
2022-10-30T22:28:29.399Z,65.04
2022-10-30T22:31:35.522Z,65.03
2022-10-30T22:34:41.561Z,64.79
2022-10-30T22:37:47.614Z,64.94
2022-10-30T22:40:53.637Z,64.83
2022-10-30T22:44:00.500Z,64.69
2022-10-30T22:47:06.735Z,64.58
2022-10-30T22:50:11.379Z,64.66
2022-10-30T22:53:18.153Z,64.76
2022-10-30T22:56:26.788Z,64.71
2022-10-30T22:59:32.930Z,64.90
2022-10-30T23:02:37.390Z,65.05
2022-10-30T23:05:43.533Z,65.25
2022-10-30T23:08:50.538Z,65.10
2022-10-30T23:11:56.670Z,65.21
2022-10-30T23:15:02.733Z,65.06
2022-10-30T23:18:09.133Z,64.99
2022-10-30T23:21:17.042Z,64.87
2022-10-30T23:24:23.109Z,64.69
2022-10-30T23:27:30.328Z,64.61
2022-10-30T23:30:38.231Z,64.76
2022-10-30T23:33:44.294Z,64.87
2022-10-30T23:36:50.399Z,64.89
2022-10-30T23:39:56.511Z,64.83
2022-10-30T23:43:03.046Z,64.74
2022-10-30T23:46:09.554Z,64.55
2022-10-30T23:49:14.372Z,64.38
2022-10-30T23:52:20.502Z,64.59
2022-10-30T23:55:26.506Z,64.73
2022-10-30T23:58:32.652Z,65.11
